sensor_id;sensor_type;location;lat;lon;timestamp;temperature;humidity
15821;DHT22;8011;51.650;7.240;2023-01-23T04:01:07;2.70;99.90
15821;DHT22;8011;51.650;7.240;2023-01-23T04:03:34;2.80;99.90
15821;DHT22;8011;51.650;7.240;2023-01-23T04:06:00;2.70;99.90
15821;DHT22;8011;51.650;7.240;2023-01-23T04:08:26;2.70;99.90
15821;DHT22;8011;51.650;7.240;2023-01-23T04:11:01;2.70;99.90
15821;DHT22;8011;51.650;7.240;2023-01-23T04:13:27;2.80;99.90
15821;DHT22;8011;51.650;7.240;2023-01-23T04:16:13;2.80;99.90
15821;DHT22;8011;51.650;7.240;2023-01-23T04:18:39;2.80;99.90
15821;DHT22;8011;51.650;7.240;2023-01-23T04:21:05;2.80;99.90
15821;DHT22;8011;51.650;7.240;2023-01-23T04:23:30;2.80;99.90
15821;DHT22;8011;51.650;7.240;2023-01-23T04:25:56;2.70;99.90
15821;DHT22;8011;51.650;7.240;2023-01-23T04:28:22;2.70;99.90
15821;DHT22;8011;51.650;7.240;2023-01-23T04:30:49;2.70;99.90
15821;DHT22;8011;51.650;7.240;2023-01-23T04:33:16;2.70;99.90
15821;DHT22;8011;51.650;7.240;2023-01-23T04:38:21;2.80;99.90
15821;DHT22;8011;51.650;7.240;2023-01-23T04:40:47;2.80;99.90
15821;DHT22;8011;51.650;7.240;2023-01-23T04:43:13;2.80;99.90
15821;DHT22;8011;51.650;7.240;2023-01-23T04:45:38;2.70;99.90
15821;DHT22;8011;51.650;7.240;2023-01-23T04:48:04;2.80;99.90
15821;DHT22;8011;51.650;7.240;2023-01-23T04:50:31;2.70;99.90
15821;DHT22;8011;51.650;7.240;2023-01-23T04:52:57;2.80;99.90
15821;DHT22;8011;51.650;7.240;2023-01-23T04:55:23;2.80;99.90
15821;DHT22;8011;51.650;7.240;2023-01-23T04:57:49;2.70;99.90
15821;DHT22;8011;51.650;7.240;2023-01-23T05:00:15;2.80;99.90
15821;DHT22;8011;51.650;7.240;2023-01-23T05:02:44;2.80;99.90
15821;DHT22;8011;51.650;7.240;2023-01-23T05:05:10;2.70;99.90
15821;DHT22;8011;51.650;7.240;2023-01-23T05:07:37;2.70;99.90
15821;DHT22;8011;51.650;7.240;2023-01-23T05:10:03;2.80;99.90
15821;DHT22;8011;51.650;7.240;2023-01-23T05:12:29;2.80;99.90
15821;DHT22;8011;51.650;7.240;2023-01-23T05:14:54;2.70;99.90
15821;DHT22;8011;51.650;7.240;2023-01-23T05:17:20;2.80;99.90
15821;DHT22;8011;51.650;7.240;2023-01-23T05:19:46;2.70;99.90
15821;DHT22;8011;51.650;7.240;2023-01-23T05:22:12;2.70;99.90
15821;DHT22;8011;51.650;7.240;2023-01-23T05:24:37;2.70;99.90
15821;DHT22;8011;51.650;7.240;2023-01-23T05:27:03;2.70;99.90
15821;DHT22;8011;51.650;7.240;2023-01-23T05:29:29;2.70;99.90
15821;DHT22;8011;51.650;7.240;2023-01-23T05:31:55;2.70;99.90
15821;DHT22;8011;51.650;7.240;2023-01-23T05:34:20;2.70;99.90
15821;DHT22;8011;51.650;7.240;2023-01-23T05:36:46;2.90;99.90
15821;DHT22;8011;51.650;7.240;2023-01-23T05:39:11;2.80;99.90
15821;DHT22;8011;51.650;7.240;2023-01-23T05:41:37;2.70;99.90
15821;DHT22;8011;51.650;7.240;2023-01-23T05:44:03;2.80;99.90
15821;DHT22;8011;51.650;7.240;2023-01-23T05:46:28;2.80;99.90
15821;DHT22;8011;51.650;7.240;2023-01-23T05:48:54;2.70;99.90
15821;DHT22;8011;51.650;7.240;2023-01-23T05:51:20;2.80;99.90
15821;DHT22;8011;51.650;7.240;2023-01-23T05:53:47;2.90;99.90
15821;DHT22;8011;51.650;7.240;2023-01-23T05:56:13;2.80;99.90
15821;DHT22;8011;51.650;7.240;2023-01-23T05:58:39;2.80;99.90
15821;DHT22;8011;51.650;7.240;2023-01-23T06:01:05;2.80;99.90
15821;DHT22;8011;51.650;7.240;2023-01-23T06:03:31;2.80;99.90
15821;DHT22;8011;51.650;7.240;2023-01-23T06:05:56;2.80;99.90
15821;DHT22;8011;51.650;7.240;2023-01-23T06:08:22;2.90;99.90
15821;DHT22;8011;51.650;7.240;2023-01-23T06:10:48;2.80;99.90
15821;DHT22;8011;51.650;7.240;2023-01-23T06:13:13;3.00;99.90
15821;DHT22;8011;51.650;7.240;2023-01-23T06:15:39;2.90;99.90
15821;DHT22;8011;51.650;7.240;2023-01-23T06:18:05;2.90;99.90
15821;DHT22;8011;51.650;7.240;2023-01-23T06:20:30;2.90;99.90
15821;DHT22;8011;51.650;7.240;2023-01-23T06:22:56;2.90;99.90
15821;DHT22;8011;51.650;7.240;2023-01-23T06:25:22;2.90;99.90
15821;DHT22;8011;51.650;7.240;2023-01-23T06:27:48;3.00;99.90
15821;DHT22;8011;51.650;7.240;2023-01-23T06:30:13;3.00;99.90
15821;DHT22;8011;51.650;7.240;2023-01-23T06:32:39;2.90;99.90
15821;DHT22;8011;51.650;7.240;2023-01-23T06:35:06;2.90;99.90
15821;DHT22;8011;51.650;7.240;2023-01-23T06:37:31;2.90;99.90
15821;DHT22;8011;51.650;7.240;2023-01-23T06:39:57;2.90;99.90
15821;DHT22;8011;51.650;7.240;2023-01-23T06:42:23;2.90;99.90
15821;DHT22;8011;51.650;7.240;2023-01-23T06:44:48;2.90;99.90
15821;DHT22;8011;51.650;7.240;2023-01-23T06:47:14;2.90;99.90
15821;DHT22;8011;51.650;7.240;2023-01-23T06:49:40;2.90;99.90
15821;DHT22;8011;51.650;7.240;2023-01-23T06:52:06;3.00;99.90
15821;DHT22;8011;51.650;7.240;2023-01-23T06:54:31;3.00;99.90
15821;DHT22;8011;51.650;7.240;2023-01-23T06:56:57;3.00;99.90
15821;DHT22;8011;51.650;7.240;2023-01-23T06:59:23;3.00;99.90
15821;DHT22;8011;51.650;7.240;2023-01-23T07:01:48;2.90;99.90
15821;DHT22;8011;51.650;7.240;2023-01-23T07:04:14;2.90;99.90
15821;DHT22;8011;51.650;7.240;2023-01-23T07:06:40;3.00;99.90
15821;DHT22;8011;51.650;7.240;2023-01-23T07:09:06;3.00;99.90
15821;DHT22;8011;51.650;7.240;2023-01-23T07:11:32;3.00;99.90
15821;DHT22;8011;51.650;7.240;2023-01-23T07:13:57;3.10;99.90
15821;DHT22;8011;51.650;7.240;2023-01-23T07:16:23;3.00;99.90
15821;DHT22;8011;51.650;7.240;2023-01-23T07:18:49;3.00;99.90
15821;DHT22;8011;51.650;7.240;2023-01-23T07:21:15;3.00;99.90
15821;DHT22;8011;51.650;7.240;2023-01-23T07:23:41;3.00;99.90
15821;DHT22;8011;51.650;7.240;2023-01-23T07:26:07;3.00;99.90
15821;DHT22;8011;51.650;7.240;2023-01-23T07:28:35;3.00;99.90
15821;DHT22;8011;51.650;7.240;2023-01-23T07:31:01;3.00;99.90
15821;DHT22;8011;51.650;7.240;2023-01-23T07:33:26;3.00;99.90
15821;DHT22;8011;51.650;7.240;2023-01-23T07:35:52;3.00;99.90
15821;DHT22;8011;51.650;7.240;2023-01-23T07:38:18;3.00;99.90
15821;DHT22;8011;51.650;7.240;2023-01-23T07:40:44;2.90;99.90
15821;DHT22;8011;51.650;7.240;2023-01-23T07:43:11;3.00;99.90
15821;DHT22;8011;51.650;7.240;2023-01-23T07:45:36;3.00;99.90
15821;DHT22;8011;51.650;7.240;2023-01-23T07:48:03;3.00;99.90
15821;DHT22;8011;51.650;7.240;2023-01-23T07:50:29;2.90;99.90
15821;DHT22;8011;51.650;7.240;2023-01-23T07:52:54;2.90;99.90
15821;DHT22;8011;51.650;7.240;2023-01-23T07:55:20;2.90;99.90
15821;DHT22;8011;51.650;7.240;2023-01-23T07:57:46;3.00;99.90
15821;DHT22;8011;51.650;7.240;2023-01-23T08:00:11;2.90;99.90
15821;DHT22;8011;51.650;7.240;2023-01-23T08:02:37;2.90;99.90
15821;DHT22;8011;51.650;7.240;2023-01-23T08:05:04;3.00;99.90
15821;DHT22;8011;51.650;7.240;2023-01-23T08:07:29;3.00;99.90
15821;DHT22;8011;51.650;7.240;2023-01-23T08:09:55;3.00;99.90
15821;DHT22;8011;51.650;7.240;2023-01-23T08:12:21;2.90;99.90
15821;DHT22;8011;51.650;7.240;2023-01-23T08:14:47;2.90;99.90
15821;DHT22;8011;51.650;7.240;2023-01-23T08:17:12;3.00;99.90
15821;DHT22;8011;51.650;7.240;2023-01-23T08:19:38;3.00;99.90
15821;DHT22;8011;51.650;7.240;2023-01-23T08:22:04;3.10;99.90
15821;DHT22;8011;51.650;7.240;2023-01-23T08:24:30;3.00;99.90
15821;DHT22;8011;51.650;7.240;2023-01-23T08:26:56;3.00;99.90
15821;DHT22;8011;51.650;7.240;2023-01-23T08:29:22;3.00;99.90
15821;DHT22;8011;51.650;7.240;2023-01-23T08:31:49;3.00;99.90
15821;DHT22;8011;51.650;7.240;2023-01-23T08:34:19;3.00;99.90
15821;DHT22;8011;51.650;7.240;2023-01-23T08:36:45;3.00;99.90
15821;DHT22;8011;51.650;7.240;2023-01-23T08:39:11;3.00;99.90
15821;DHT22;8011;51.650;7.240;2023-01-23T08:41:40;3.00;99.90
15821;DHT22;8011;51.650;7.240;2023-01-23T08:44:06;3.10;99.90
15821;DHT22;8011;51.650;7.240;2023-01-23T08:46:32;2.90;99.90
15821;DHT22;8011;51.650;7.240;2023-01-23T08:48:57;2.90;99.90
15821;DHT22;8011;51.650;7.240;2023-01-23T08:51:23;2.90;99.90
15821;DHT22;8011;51.650;7.240;2023-01-23T08:53:51;2.90;99.90
15821;DHT22;8011;51.650;7.240;2023-01-23T08:56:19;3.00;99.90
15821;DHT22;8011;51.650;7.240;2023-01-23T08:58:48;3.00;99.90
15821;DHT22;8011;51.650;7.240;2023-01-23T09:01:20;3.00;99.90
15821;DHT22;8011;51.650;7.240;2023-01-23T09:03:47;3.00;99.90
15821;DHT22;8011;51.650;7.240;2023-01-23T09:06:15;3.00;99.90
15821;DHT22;8011;51.650;7.240;2023-01-23T09:08:43;3.00;99.90
15821;DHT22;8011;51.650;7.240;2023-01-23T09:11:10;3.00;99.90
15821;DHT22;8011;51.650;7.240;2023-01-23T09:13:36;3.00;99.90
15821;DHT22;8011;51.650;7.240;2023-01-23T09:16:04;3.00;99.90
15821;DHT22;8011;51.650;7.240;2023-01-23T09:18:30;3.00;99.90
15821;DHT22;8011;51.650;7.240;2023-01-23T09:20:56;3.00;99.90
15821;DHT22;8011;51.650;7.240;2023-01-23T09:23:22;3.00;99.90
15821;DHT22;8011;51.650;7.240;2023-01-23T09:25:49;3.00;99.90
15821;DHT22;8011;51.650;7.240;2023-01-23T09:28:15;3.00;99.90
15821;DHT22;8011;51.650;7.240;2023-01-23T09:30:41;3.00;99.90
15821;DHT22;8011;51.650;7.240;2023-01-23T09:33:08;3.00;99.90
15821;DHT22;8011;51.650;7.240;2023-01-23T09:35:35;3.10;99.90
15821;DHT22;8011;51.650;7.240;2023-01-23T09:38:02;3.00;99.90
15821;DHT22;8011;51.650;7.240;2023-01-23T09:40:48;3.00;99.90
15821;DHT22;8011;51.650;7.240;2023-01-23T09:43:14;3.10;99.90
15821;DHT22;8011;51.650;7.240;2023-01-23T09:45:49;3.30;99.90
15821;DHT22;8011;51.650;7.240;2023-01-23T09:49:04;3.20;99.90
15821;DHT22;8011;51.650;7.240;2023-01-23T09:51:23;3.20;99.90
15821;DHT22;8011;51.650;7.240;2023-01-23T09:53:51;3.20;99.90
15821;DHT22;8011;51.650;7.240;2023-01-23T09:56:35;3.30;99.90
15821;DHT22;8011;51.650;7.240;2023-01-23T09:59:35;3.30;99.90
15821;DHT22;8011;51.650;7.240;2023-01-23T10:02:07;3.30;99.90
15821;DHT22;8011;51.650;7.240;2023-01-23T10:04:36;3.30;99.90
15821;DHT22;8011;51.650;7.240;2023-01-23T10:13:20;3.40;99.90
15821;DHT22;8011;51.650;7.240;2023-01-23T10:23:45;3.40;99.90
15821;DHT22;8011;51.650;7.240;2023-01-23T10:26:17;3.50;99.90
15821;DHT22;8011;51.650;7.240;2023-01-23T10:28:45;3.60;99.90
15821;DHT22;8011;51.650;7.240;2023-01-23T10:33:49;3.60;99.90
15821;DHT22;8011;51.650;7.240;2023-01-23T10:36:22;3.60;99.90
15821;DHT22;8011;51.650;7.240;2023-01-23T10:39:04;3.60;99.90
15821;DHT22;8011;51.650;7.240;2023-01-23T10:41:32;3.60;99.90
15821;DHT22;8011;51.650;7.240;2023-01-23T10:43:59;3.60;99.90
15821;DHT22;8011;51.650;7.240;2023-01-23T10:46:33;3.60;99.90
15821;DHT22;8011;51.650;7.240;2023-01-23T10:49:03;3.60;99.90
15821;DHT22;8011;51.650;7.240;2023-01-23T10:54:04;3.70;99.90
15821;DHT22;8011;51.650;7.240;2023-01-23T10:56:36;3.60;99.90
15821;DHT22;8011;51.650;7.240;2023-01-23T10:59:04;3.70;99.90
15821;DHT22;8011;51.650;7.240;2023-01-23T11:01:33;3.70;99.90
15821;DHT22;8011;51.650;7.240;2023-01-23T11:04:20;3.60;99.90
15821;DHT22;8011;51.650;7.240;2023-01-23T11:07:09;3.60;99.90
15821;DHT22;8011;51.650;7.240;2023-01-23T11:09:56;3.60;99.90
15821;DHT22;8011;51.650;7.240;2023-01-23T11:15:20;3.60;99.90
15821;DHT22;8011;51.650;7.240;2023-01-23T11:17:50;3.60;99.90
15821;DHT22;8011;51.650;7.240;2023-01-23T11:20:28;3.70;99.90
15821;DHT22;8011;51.650;7.240;2023-01-23T11:26:08;3.70;99.90
15821;DHT22;8011;51.650;7.240;2023-01-23T11:28:32;3.70;99.90
15821;DHT22;8011;51.650;7.240;2023-01-23T11:31:19;3.70;99.90
15821;DHT22;8011;51.650;7.240;2023-01-23T11:38:50;3.80;99.90
15821;DHT22;8011;51.650;7.240;2023-01-23T11:41:16;3.70;99.90
15821;DHT22;8011;51.650;7.240;2023-01-23T11:43:42;3.80;99.90
15821;DHT22;8011;51.650;7.240;2023-01-23T11:57:45;4.00;99.90
15821;DHT22;8011;51.650;7.240;2023-01-23T12:05:50;4.00;99.90
15821;DHT22;8011;51.650;7.240;2023-01-23T12:08:42;4.00;99.90
15821;DHT22;8011;51.650;7.240;2023-01-23T12:11:14;4.00;99.90
15821;DHT22;8011;51.650;7.240;2023-01-23T12:16:36;4.10;99.90
15821;DHT22;8011;51.650;7.240;2023-01-23T12:27:46;4.10;99.90
15821;DHT22;8011;51.650;7.240;2023-01-23T12:33:18;4.10;99.90
15821;DHT22;8011;51.650;7.240;2023-01-23T12:41:15;4.10;99.90
15821;DHT22;8011;51.650;7.240;2023-01-23T12:43:51;4.10;99.90
15821;DHT22;8011;51.650;7.240;2023-01-23T12:46:35;4.10;99.90
15821;DHT22;8011;51.650;7.240;2023-01-23T12:50:00;4.10;99.90
15821;DHT22;8011;51.650;7.240;2023-01-23T12:52:27;4.10;99.90
15821;DHT22;8011;51.650;7.240;2023-01-23T12:55:12;4.20;99.90
15821;DHT22;8011;51.650;7.240;2023-01-23T12:57:41;4.20;99.90
15821;DHT22;8011;51.650;7.240;2023-01-23T13:09:02;4.20;99.90
15821;DHT22;8011;51.650;7.240;2023-01-23T13:11:55;4.20;99.90
15821;DHT22;8011;51.650;7.240;2023-01-23T13:16:55;4.30;99.90
15821;DHT22;8011;51.650;7.240;2023-01-23T13:19:28;4.30;99.90
15821;DHT22;8011;51.650;7.240;2023-01-23T13:22:28;4.30;99.90
15821;DHT22;8011;51.650;7.240;2023-01-23T13:25:13;4.30;99.90
15821;DHT22;8011;51.650;7.240;2023-01-23T13:27:55;4.30;99.90
15821;DHT22;8011;51.650;7.240;2023-01-23T13:35:55;4.30;99.90
15821;DHT22;8011;51.650;7.240;2023-01-23T13:43:54;4.40;99.90
15821;DHT22;8011;51.650;7.240;2023-01-23T13:51:48;4.30;99.90
15821;DHT22;8011;51.650;7.240;2023-01-23T13:54:22;4.30;99.90
15821;DHT22;8011;51.650;7.240;2023-01-23T13:57:08;4.30;99.90
15821;DHT22;8011;51.650;7.240;2023-01-23T13:59:45;4.30;99.90
15821;DHT22;8011;51.650;7.240;2023-01-23T14:02:35;4.30;99.90
15821;DHT22;8011;51.650;7.240;2023-01-23T14:05:24;4.30;99.90
15821;DHT22;8011;51.650;7.240;2023-01-23T14:08:02;4.30;99.90
15821;DHT22;8011;51.650;7.240;2023-01-23T14:10:31;4.30;99.90
15821;DHT22;8011;51.650;7.240;2023-01-23T14:13:10;4.30;99.90
15821;DHT22;8011;51.650;7.240;2023-01-23T14:15:43;4.30;99.90
15821;DHT22;8011;51.650;7.240;2023-01-23T14:18:30;4.30;99.90
15821;DHT22;8011;51.650;7.240;2023-01-23T14:23:40;4.30;99.90
15821;DHT22;8011;51.650;7.240;2023-01-23T14:26:10;4.30;99.90
15821;DHT22;8011;51.650;7.240;2023-01-23T14:28:38;4.30;99.90
15821;DHT22;8011;51.650;7.240;2023-01-23T14:31:05;4.30;99.90
15821;DHT22;8011;51.650;7.240;2023-01-23T14:33:42;4.30;99.90
15821;DHT22;8011;51.650;7.240;2023-01-23T14:36:14;4.30;99.90
15821;DHT22;8011;51.650;7.240;2023-01-23T14:38:42;4.30;99.90
15821;DHT22;8011;51.650;7.240;2023-01-23T14:41:08;4.30;99.90
15821;DHT22;8011;51.650;7.240;2023-01-23T14:43:35;4.30;99.90
15821;DHT22;8011;51.650;7.240;2023-01-23T14:46:49;4.40;99.90
15821;DHT22;8011;51.650;7.240;2023-01-23T14:48:53;4.30;99.90
15821;DHT22;8011;51.650;7.240;2023-01-23T14:51:21;4.40;99.90
15821;DHT22;8011;51.650;7.240;2023-01-23T14:53:57;4.30;99.90
15821;DHT22;8011;51.650;7.240;2023-01-23T14:58:58;4.30;99.90
15821;DHT22;8011;51.650;7.240;2023-01-23T15:01:25;4.30;99.90
15821;DHT22;8011;51.650;7.240;2023-01-23T15:04:21;4.30;99.90
15821;DHT22;8011;51.650;7.240;2023-01-23T15:06:52;4.20;99.90
15821;DHT22;8011;51.650;7.240;2023-01-23T15:09:30;4.30;99.90
15821;DHT22;8011;51.650;7.240;2023-01-23T15:12:16;4.30;99.90
15821;DHT22;8011;51.650;7.240;2023-01-23T15:14:42;4.30;99.90
15821;DHT22;8011;51.650;7.240;2023-01-23T15:17:27;4.30;99.90
15821;DHT22;8011;51.650;7.240;2023-01-23T15:19:53;4.30;99.90
15821;DHT22;8011;51.650;7.240;2023-01-23T15:22:28;4.30;99.90
15821;DHT22;8011;51.650;7.240;2023-01-23T15:24:54;4.20;99.90
15821;DHT22;8011;51.650;7.240;2023-01-23T15:27:31;4.20;99.90
15821;DHT22;8011;51.650;7.240;2023-01-23T15:32:54;4.30;99.90
15821;DHT22;8011;51.650;7.240;2023-01-23T15:35:25;4.30;99.90
15821;DHT22;8011;51.650;7.240;2023-01-23T15:37:51;4.40;99.90
15821;DHT22;8011;51.650;7.240;2023-01-23T15:40:26;4.30;99.90
15821;DHT22;8011;51.650;7.240;2023-01-23T15:43:18;4.20;99.90
15821;DHT22;8011;51.650;7.240;2023-01-23T15:45:44;4.20;99.90
15821;DHT22;8011;51.650;7.240;2023-01-23T15:48:10;4.30;99.90
15821;DHT22;8011;51.650;7.240;2023-01-23T15:50:36;4.30;99.90
15821;DHT22;8011;51.650;7.240;2023-01-23T15:53:02;4.30;99.90
15821;DHT22;8011;51.650;7.240;2023-01-23T15:55:28;4.30;99.90
15821;DHT22;8011;51.650;7.240;2023-01-23T15:57:54;4.20;99.90
15821;DHT22;8011;51.650;7.240;2023-01-23T16:00:23;4.30;99.90
15821;DHT22;8011;51.650;7.240;2023-01-23T16:02:50;4.20;99.90
15821;DHT22;8011;51.650;7.240;2023-01-23T16:05:20;4.20;99.90
15821;DHT22;8011;51.650;7.240;2023-01-23T16:07:46;4.20;99.90
15821;DHT22;8011;51.650;7.240;2023-01-23T16:10:28;4.20;99.90
15821;DHT22;8011;51.650;7.240;2023-01-23T16:12:55;4.10;99.90
15821;DHT22;8011;51.650;7.240;2023-01-23T16:15:30;4.20;99.90
15821;DHT22;8011;51.650;7.240;2023-01-23T16:18:00;4.20;99.90
15821;DHT22;8011;51.650;7.240;2023-01-23T16:20:28;4.10;99.90
15821;DHT22;8011;51.650;7.240;2023-01-23T16:22:57;4.10;99.90
15821;DHT22;8011;51.650;7.240;2023-01-23T16:25:32;4.00;99.90
15821;DHT22;8011;51.650;7.240;2023-01-23T16:27:58;4.00;99.90
15821;DHT22;8011;51.650;7.240;2023-01-23T16:30:26;4.00;99.90
15821;DHT22;8011;51.650;7.240;2023-01-23T16:32:53;4.00;99.90
15821;DHT22;8011;51.650;7.240;2023-01-23T16:35:20;4.00;99.90
15821;DHT22;8011;51.650;7.240;2023-01-23T16:37:51;4.00;99.90
15821;DHT22;8011;51.650;7.240;2023-01-23T16:40:23;4.00;99.90
15821;DHT22;8011;51.650;7.240;2023-01-23T16:42:51;4.00;99.90
15821;DHT22;8011;51.650;7.240;2023-01-23T16:45:28;4.00;99.90
15821;DHT22;8011;51.650;7.240;2023-01-23T16:47:55;4.00;99.90
15821;DHT22;8011;51.650;7.240;2023-01-23T16:56:25;4.00;99.90
15821;DHT22;8011;51.650;7.240;2023-01-23T16:58:54;3.90;99.90
15821;DHT22;8011;51.650;7.240;2023-01-23T17:01:21;3.90;99.90
15821;DHT22;8011;51.650;7.240;2023-01-23T17:03:55;3.90;99.90
15821;DHT22;8011;51.650;7.240;2023-01-23T17:06:22;3.90;99.90
15821;DHT22;8011;51.650;7.240;2023-01-23T17:08:47;3.80;99.90
15821;DHT22;8011;51.650;7.240;2023-01-23T17:11:35;3.90;99.90
15821;DHT22;8011;51.650;7.240;2023-01-23T17:14:12;3.80;99.90
15821;DHT22;8011;51.650;7.240;2023-01-23T17:16:39;3.80;99.90
15821;DHT22;8011;51.650;7.240;2023-01-23T17:19:13;3.80;99.90
15821;DHT22;8011;51.650;7.240;2023-01-23T17:21:41;3.90;99.90
15821;DHT22;8011;51.650;7.240;2023-01-23T17:24:15;3.80;99.90
15821;DHT22;8011;51.650;7.240;2023-01-23T17:26:42;3.80;99.90
15821;DHT22;8011;51.650;7.240;2023-01-23T17:29:08;3.90;99.90
15821;DHT22;8011;51.650;7.240;2023-01-23T17:31:35;3.90;99.90
15821;DHT22;8011;51.650;7.240;2023-01-23T17:34:02;3.90;99.90
15821;DHT22;8011;51.650;7.240;2023-01-23T17:36:29;3.90;99.90
15821;DHT22;8011;51.650;7.240;2023-01-23T17:38:57;3.90;99.90
15821;DHT22;8011;51.650;7.240;2023-01-23T17:41:23;3.90;99.90
15821;DHT22;8011;51.650;7.240;2023-01-23T17:43:49;3.90;99.90
15821;DHT22;8011;51.650;7.240;2023-01-23T17:46:23;4.00;99.90
15821;DHT22;8011;51.650;7.240;2023-01-23T17:48:50;3.90;99.90
15821;DHT22;8011;51.650;7.240;2023-01-23T17:51:17;3.90;99.90
15821;DHT22;8011;51.650;7.240;2023-01-23T17:53:47;3.90;99.90
15821;DHT22;8011;51.650;7.240;2023-01-23T17:56:13;3.90;99.90
15821;DHT22;8011;51.650;7.240;2023-01-23T17:58:39;3.90;99.90
15821;DHT22;8011;51.650;7.240;2023-01-23T18:01:20;3.90;99.90
15821;DHT22;8011;51.650;7.240;2023-01-23T18:03:50;3.90;99.90
15821;DHT22;8011;51.650;7.240;2023-01-23T18:06:17;3.90;99.90
15821;DHT22;8011;51.650;7.240;2023-01-23T18:08:43;3.90;99.90
15821;DHT22;8011;51.650;7.240;2023-01-23T18:11:21;3.90;99.90
15821;DHT22;8011;51.650;7.240;2023-01-23T18:14:14;3.90;99.90
15821;DHT22;8011;51.650;7.240;2023-01-23T18:16:45;3.90;99.90
15821;DHT22;8011;51.650;7.240;2023-01-23T18:21:38;3.90;99.90
15821;DHT22;8011;51.650;7.240;2023-01-23T18:24:04;3.90;99.90
15821;DHT22;8011;51.650;7.240;2023-01-23T18:32:20;3.80;99.90
15821;DHT22;8011;51.650;7.240;2023-01-23T18:38:10;3.80;99.90
15821;DHT22;8011;51.650;7.240;2023-01-23T18:43:17;3.80;99.90
15821;DHT22;8011;51.650;7.240;2023-01-23T18:45:47;3.90;99.90
15821;DHT22;8011;51.650;7.240;2023-01-23T18:48:13;3.90;99.90
15821;DHT22;8011;51.650;7.240;2023-01-23T18:50:47;3.90;99.90
15821;DHT22;8011;51.650;7.240;2023-01-23T18:56:56;3.90;99.90
15821;DHT22;8011;51.650;7.240;2023-01-23T18:59:24;3.90;99.90
15821;DHT22;8011;51.650;7.240;2023-01-23T19:01:53;3.90;99.90
15821;DHT22;8011;51.650;7.240;2023-01-23T19:04:42;3.90;99.90
15821;DHT22;8011;51.650;7.240;2023-01-23T19:07:18;3.90;99.90
15821;DHT22;8011;51.650;7.240;2023-01-23T19:09:45;4.00;99.90
15821;DHT22;8011;51.650;7.240;2023-01-23T19:17:46;3.90;99.90
15821;DHT22;8011;51.650;7.240;2023-01-23T19:25:42;3.90;99.90
15821;DHT22;8011;51.650;7.240;2023-01-23T19:28:12;3.90;99.90
15821;DHT22;8011;51.650;7.240;2023-01-23T19:30:39;4.00;99.90
15821;DHT22;8011;51.650;7.240;2023-01-23T19:33:04;3.90;99.90
15821;DHT22;8011;51.650;7.240;2023-01-23T19:35:30;4.00;99.90
15821;DHT22;8011;51.650;7.240;2023-01-23T19:37:56;3.90;99.90
15821;DHT22;8011;51.650;7.240;2023-01-23T19:40:22;3.90;99.90
15821;DHT22;8011;51.650;7.240;2023-01-23T19:42:48;3.90;99.90
15821;DHT22;8011;51.650;7.240;2023-01-23T19:45:16;3.90;99.90
15821;DHT22;8011;51.650;7.240;2023-01-23T19:47:45;3.90;99.90
15821;DHT22;8011;51.650;7.240;2023-01-23T19:50:16;3.90;99.90
15821;DHT22;8011;51.650;7.240;2023-01-23T19:52:46;3.90;99.90
15821;DHT22;8011;51.650;7.240;2023-01-23T19:55:28;3.90;99.90
15821;DHT22;8011;51.650;7.240;2023-01-23T19:57:57;3.80;99.90
15821;DHT22;8011;51.650;7.240;2023-01-23T20:00:24;3.90;99.90
15821;DHT22;8011;51.650;7.240;2023-01-23T20:02:51;4.00;99.90
15821;DHT22;8011;51.650;7.240;2023-01-23T20:05:18;3.90;99.90
15821;DHT22;8011;51.650;7.240;2023-01-23T20:07:43;3.90;99.90
15821;DHT22;8011;51.650;7.240;2023-01-23T20:10:10;3.90;99.90
15821;DHT22;8011;51.650;7.240;2023-01-23T20:12:45;3.90;99.90
15821;DHT22;8011;51.650;7.240;2023-01-23T20:15:13;3.90;99.90
15821;DHT22;8011;51.650;7.240;2023-01-23T20:17:40;3.90;99.90
15821;DHT22;8011;51.650;7.240;2023-01-23T20:20:07;3.90;99.90
15821;DHT22;8011;51.650;7.240;2023-01-23T20:22:40;3.90;99.90
15821;DHT22;8011;51.650;7.240;2023-01-23T20:25:08;3.90;99.90
15821;DHT22;8011;51.650;7.240;2023-01-23T20:27:35;3.90;99.90
15821;DHT22;8011;51.650;7.240;2023-01-23T20:30:02;3.90;99.90
15821;DHT22;8011;51.650;7.240;2023-01-23T20:32:30;3.90;99.90
15821;DHT22;8011;51.650;7.240;2023-01-23T20:34:57;3.80;99.90
15821;DHT22;8011;51.650;7.240;2023-01-23T20:37:23;3.80;99.90
15821;DHT22;8011;51.650;7.240;2023-01-23T20:39:48;3.80;99.90
15821;DHT22;8011;51.650;7.240;2023-01-23T20:42:14;3.90;99.90
15821;DHT22;8011;51.650;7.240;2023-01-23T20:44:40;3.80;99.90
15821;DHT22;8011;51.650;7.240;2023-01-23T20:47:05;3.80;99.90
15821;DHT22;8011;51.650;7.240;2023-01-23T20:49:31;3.70;99.90
15821;DHT22;8011;51.650;7.240;2023-01-23T20:51:57;3.80;99.90
15821;DHT22;8011;51.650;7.240;2023-01-23T20:54:43;3.80;99.90
15821;DHT22;8011;51.650;7.240;2023-01-23T20:57:10;3.80;99.90
15821;DHT22;8011;51.650;7.240;2023-01-23T20:59:36;3.80;99.90
15821;DHT22;8011;51.650;7.240;2023-01-23T21:02:01;3.80;99.90
15821;DHT22;8011;51.650;7.240;2023-01-23T21:04:45;3.80;99.90
15821;DHT22;8011;51.650;7.240;2023-01-23T21:07:11;3.90;99.90
15821;DHT22;8011;51.650;7.240;2023-01-23T21:09:37;3.80;99.90
15821;DHT22;8011;51.650;7.240;2023-01-23T21:12:03;3.80;99.90
15821;DHT22;8011;51.650;7.240;2023-01-23T21:14:31;3.90;99.90
15821;DHT22;8011;51.650;7.240;2023-01-23T21:16:57;3.80;99.90
15821;DHT22;8011;51.650;7.240;2023-01-23T21:19:23;3.90;99.90
15821;DHT22;8011;51.650;7.240;2023-01-23T21:21:49;3.90;99.90
15821;DHT22;8011;51.650;7.240;2023-01-23T21:24:15;3.80;99.90
15821;DHT22;8011;51.650;7.240;2023-01-23T21:26:41;3.80;99.90
15821;DHT22;8011;51.650;7.240;2023-01-23T21:29:08;3.90;99.90
15821;DHT22;8011;51.650;7.240;2023-01-23T21:31:35;3.80;99.90
15821;DHT22;8011;51.650;7.240;2023-01-23T21:34:07;3.80;99.90
15821;DHT22;8011;51.650;7.240;2023-01-23T21:36:33;3.80;99.90
15821;DHT22;8011;51.650;7.240;2023-01-23T21:38:59;3.70;99.90
15821;DHT22;8011;51.650;7.240;2023-01-23T21:41:25;3.70;99.90
15821;DHT22;8011;51.650;7.240;2023-01-23T21:43:51;3.80;99.90
15821;DHT22;8011;51.650;7.240;2023-01-23T21:46:16;3.70;99.90
15821;DHT22;8011;51.650;7.240;2023-01-23T21:48:42;3.70;99.90
15821;DHT22;8011;51.650;7.240;2023-01-23T21:53:39;3.70;99.90
15821;DHT22;8011;51.650;7.240;2023-01-23T21:56:06;3.70;99.90
15821;DHT22;8011;51.650;7.240;2023-01-23T21:58:32;3.70;99.90
15821;DHT22;8011;51.650;7.240;2023-01-23T22:01:00;3.70;99.90
15821;DHT22;8011;51.650;7.240;2023-01-23T22:03:45;3.70;99.90
15821;DHT22;8011;51.650;7.240;2023-01-23T22:06:11;3.70;99.90
15821;DHT22;8011;51.650;7.240;2023-01-23T22:08:37;3.70;99.90
15821;DHT22;8011;51.650;7.240;2023-01-23T22:11:04;3.70;99.90
15821;DHT22;8011;51.650;7.240;2023-01-23T22:13:30;3.70;99.90
15821;DHT22;8011;51.650;7.240;2023-01-23T22:15:56;3.70;99.90
15821;DHT22;8011;51.650;7.240;2023-01-23T22:18:22;3.60;99.90
15821;DHT22;8011;51.650;7.240;2023-01-23T22:20:55;3.60;99.90
15821;DHT22;8011;51.650;7.240;2023-01-23T22:23:22;3.60;99.90
15821;DHT22;8011;51.650;7.240;2023-01-23T22:25:49;3.60;99.90
15821;DHT22;8011;51.650;7.240;2023-01-23T22:28:15;3.50;99.90
15821;DHT22;8011;51.650;7.240;2023-01-23T22:30:44;3.50;99.90
15821;DHT22;8011;51.650;7.240;2023-01-23T22:33:09;3.50;99.90
15821;DHT22;8011;51.650;7.240;2023-01-23T22:35:39;3.50;99.90
15821;DHT22;8011;51.650;7.240;2023-01-23T22:38:05;3.50;99.90
15821;DHT22;8011;51.650;7.240;2023-01-23T22:40:31;3.60;99.90